createdAt,value
2024-01-27T00:02:15.702Z,33.20
2024-01-27T00:07:50.906Z,30.73
2024-01-27T00:13:26.202Z,29.88
2024-01-27T00:16:13.742Z,30.05
2024-01-27T00:21:48.455Z,30.70
2024-01-27T00:27:23.182Z,29.80
2024-01-27T00:30:12.799Z,28.92
2024-01-27T00:33:00.336Z,30.98
2024-01-27T00:35:47.769Z,26.63
2024-01-27T00:41:22.351Z,28.30
2024-01-27T00:46:57.057Z,25.35
2024-01-27T00:52:31.710Z,26.10
2024-01-27T00:58:06.273Z,23.63
2024-01-27T01:03:40.970Z,24.70
2024-01-27T01:06:28.446Z,24.25
2024-01-27T01:09:15.848Z,25.30
2024-01-27T01:14:50.870Z,22.40
2024-01-27T01:20:27.238Z,22.17
2024-01-27T01:23:14.561Z,25.02
2024-01-27T01:28:49.250Z,24.38
2024-01-27T01:34:23.957Z,20.92
2024-01-27T01:37:11.405Z,22.33
2024-01-27T01:42:51.977Z,21.35
2024-01-27T01:45:39.350Z,20.50
2024-01-27T01:48:27.257Z,21.67
2024-01-27T01:51:15.043Z,19.60
2024-01-27T01:54:02.838Z,21.00
2024-01-27T01:56:50.654Z,20.80
2024-01-27T01:59:41.934Z,20.13
2024-01-27T02:02:29.427Z,19.98
2024-01-27T02:08:05.422Z,20.60
2024-01-27T02:10:52.931Z,22.48
2024-01-27T02:13:40.410Z,19.95
2024-01-27T02:16:27.840Z,21.15
2024-01-27T02:19:15.390Z,19.60
2024-01-27T02:22:03.735Z,19.02
2024-01-27T02:24:51.123Z,20.20
2024-01-27T02:30:25.893Z,16.38
2024-01-27T02:33:13.465Z,15.13
2024-01-27T02:36:00.923Z,16.55
2024-01-27T02:38:48.278Z,17.13
2024-01-27T02:41:39.925Z,17.40
2024-01-27T02:44:27.293Z,18.60
2024-01-27T02:50:01.894Z,16.23
2024-01-27T02:55:36.452Z,15.70
2024-01-27T02:58:23.857Z,17.02
2024-01-27T03:03:58.660Z,15.07
2024-01-27T03:06:46.348Z,14.57
2024-01-27T03:09:34.043Z,15.93
2024-01-27T03:12:24.188Z,16.48
2024-01-27T03:15:11.791Z,15.80
2024-01-27T03:17:59.746Z,16.98
2024-01-27T03:20:47.199Z,16.33
2024-01-27T03:26:21.981Z,13.13
2024-01-27T03:29:09.360Z,13.65
2024-01-27T03:34:47.473Z,14.85
2024-01-27T03:37:35.683Z,13.85
2024-01-27T03:40:22.982Z,14.82
2024-01-27T03:45:57.922Z,11.63
2024-01-27T03:48:45.337Z,12.85
2024-01-27T03:51:32.721Z,13.52
2024-01-27T03:57:07.405Z,13.15
2024-01-27T03:59:54.766Z,12.23
2024-01-27T04:05:32.543Z,14.80
2024-01-27T04:08:20.190Z,12.75
2024-01-27T04:11:07.597Z,12.05
2024-01-27T04:16:42.481Z,11.88
2024-01-27T04:19:29.926Z,12.43
2024-01-27T04:22:17.292Z,13.27
2024-01-27T04:27:52.217Z,11.43
2024-01-27T04:33:26.988Z,11.35
2024-01-27T04:36:14.453Z,12.43
2024-01-27T04:39:01.864Z,11.15
2024-01-27T04:44:42.656Z,9.85
2024-01-27T04:47:30.032Z,13.35
2024-01-27T04:53:05.352Z,9.95
2024-01-27T04:55:52.690Z,11.13
2024-01-27T05:01:27.294Z,10.18
2024-01-27T05:07:02.196Z,9.95
2024-01-27T05:09:49.709Z,10.32
2024-01-27T05:15:24.556Z,9.93
2024-01-27T05:18:11.967Z,13.32
2024-01-27T05:20:59.340Z,9.70
2024-01-27T05:26:33.931Z,9.52
2024-01-27T05:32:08.567Z,10.57
2024-01-27T05:37:43.187Z,9.88
2024-01-27T05:43:17.776Z,9.63
2024-01-27T05:46:05.184Z,8.40
2024-01-27T05:51:42.324Z,8.50
2024-01-27T05:57:17.016Z,10.80
2024-01-27T06:00:04.916Z,8.45
2024-01-27T06:02:52.768Z,8.88
2024-01-27T06:05:40.154Z,10.32
2024-01-27T06:11:14.879Z,10.50
2024-01-27T06:14:02.186Z,10.38
2024-01-27T06:19:36.981Z,9.43
2024-01-27T06:22:24.369Z,7.70
2024-01-27T06:28:01.933Z,8.25
2024-01-27T06:30:49.306Z,8.48
2024-01-27T06:33:36.713Z,10.68
2024-01-27T06:36:25.916Z,9.35
2024-01-27T06:39:13.354Z,9.75
2024-01-27T06:42:01.061Z,10.05
2024-01-27T06:44:48.442Z,8.00
2024-01-27T06:47:35.778Z,9.90
2024-01-27T06:50:24.142Z,10.75
2024-01-27T06:53:12.162Z,7.43
2024-01-27T06:55:59.538Z,8.73
2024-01-27T07:01:34.135Z,9.90
2024-01-27T07:04:21.599Z,11.35
2024-01-27T07:07:09.140Z,8.35
2024-01-27T07:09:57.104Z,8.57
2024-01-27T07:12:44.553Z,7.53
2024-01-27T07:15:32.000Z,6.30
2024-01-27T07:18:20.988Z,6.25
2024-01-27T07:21:09.447Z,7.43
2024-01-27T07:23:57.028Z,6.15
2024-01-27T07:26:44.362Z,6.40
2024-01-27T07:29:31.757Z,7.30
2024-01-27T07:32:19.053Z,7.90
2024-01-27T07:35:07.106Z,6.78
2024-01-27T07:37:54.931Z,7.38
2024-01-27T07:40:42.785Z,6.43
2024-01-27T07:43:30.072Z,10.15
2024-01-27T07:49:05.079Z,8.07
2024-01-27T07:51:52.437Z,5.50
2024-01-27T07:54:41.373Z,7.47
2024-01-27T07:57:29.638Z,10.02
2024-01-27T08:00:17.394Z,7.85
2024-01-27T08:03:04.916Z,10.82
2024-01-27T08:05:52.378Z,9.63
2024-01-27T08:08:39.725Z,9.23
2024-01-27T08:11:27.453Z,10.63
2024-01-27T08:14:14.763Z,9.45
2024-01-27T08:17:02.277Z,8.40
2024-01-27T08:19:49.764Z,8.73
2024-01-27T08:22:37.092Z,14.48
2024-01-27T08:25:24.437Z,14.40
2024-01-27T08:28:11.703Z,10.38
2024-01-27T09:48:25.554Z,14.80
2024-01-27T09:51:13.492Z,15.25
2024-01-27T09:54:01.093Z,61.33
2024-01-27T09:56:49.807Z,32.13
2024-01-27T09:59:37.948Z,22.30
2024-01-27T10:02:28.995Z,13.68
2024-01-27T10:05:19.206Z,16.58
2024-01-27T10:08:09.695Z,13.25
2024-01-27T10:10:58.090Z,12.80
2024-01-27T10:13:45.572Z,14.90
2024-01-27T10:16:43.379Z,13.88
2024-01-27T10:19:30.854Z,15.18
2024-01-27T10:22:18.292Z,13.25
2024-01-27T10:25:10.494Z,16.17
2024-01-27T10:27:58.713Z,15.23
2024-01-27T10:30:49.515Z,16.75
2024-01-27T10:33:36.938Z,13.07
2024-01-27T10:36:25.759Z,13.05
2024-01-27T10:39:31.510Z,16.67
2024-01-27T10:42:20.877Z,11.63
2024-01-27T10:45:09.400Z,14.00
2024-01-27T10:48:01.246Z,30.52
2024-01-27T10:50:50.431Z,31.77
2024-01-27T10:53:40.999Z,15.48
2024-01-27T10:56:31.027Z,11.57
2024-01-27T10:59:22.286Z,11.07
2024-01-27T11:02:15.241Z,11.93
2024-01-27T11:05:08.618Z,12.73
2024-01-27T11:07:59.712Z,8.35
2024-01-27T11:10:47.770Z,10.07
2024-01-27T11:13:36.461Z,9.00
2024-01-27T11:16:24.949Z,7.45
2024-01-27T11:19:13.757Z,9.88
2024-01-27T11:22:05.023Z,9.00
2024-01-27T11:24:52.505Z,8.57
2024-01-27T11:27:46.118Z,8.93
2024-01-27T11:30:40.925Z,10.10
2024-01-27T11:33:28.544Z,8.63
2024-01-27T11:36:24.672Z,11.48
2024-01-27T11:39:31.793Z,9.07
2024-01-27T11:42:20.056Z,11.57
2024-01-27T11:45:11.856Z,7.80
2024-01-27T11:48:01.511Z,9.90
2024-01-27T11:50:49.096Z,9.75
2024-01-27T11:53:36.580Z,7.03
2024-01-27T11:56:24.156Z,5.70
2024-01-27T11:59:11.981Z,9.88
2024-01-27T12:01:59.455Z,8.77
2024-01-27T12:04:48.235Z,8.02
2024-01-27T12:07:35.901Z,12.85
2024-01-27T12:10:23.834Z,9.10
2024-01-27T12:13:11.457Z,10.43
2024-01-27T12:15:59.000Z,10.07
2024-01-27T12:18:47.298Z,12.57
2024-01-27T12:21:34.964Z,10.40
2024-01-27T12:24:22.904Z,9.23
2024-01-27T12:27:10.544Z,12.57
2024-01-27T12:29:58.137Z,9.57
2024-01-27T12:32:45.649Z,7.22
2024-01-27T12:35:33.129Z,15.02
2024-01-27T12:38:20.662Z,9.07
2024-01-27T12:41:08.656Z,9.68
2024-01-27T12:43:56.963Z,7.75
2024-01-27T12:46:44.833Z,9.07
2024-01-27T12:49:32.559Z,10.48
2024-01-27T12:52:20.085Z,8.43
2024-01-27T12:55:07.988Z,9.45
2024-01-27T12:57:55.450Z,8.77
2024-01-27T13:00:43.140Z,10.20
2024-01-27T13:03:30.717Z,7.95
2024-01-27T13:06:20.071Z,12.05
2024-01-27T13:09:08.946Z,8.88
2024-01-27T13:11:56.470Z,9.20
2024-01-27T13:14:43.859Z,9.77
2024-01-27T13:17:31.324Z,8.00
2024-01-27T13:20:20.590Z,12.05
2024-01-27T13:23:08.947Z,9.27
2024-01-27T13:26:08.207Z,9.73
2024-01-27T13:29:04.087Z,9.85
2024-01-27T13:31:51.769Z,9.13
2024-01-27T13:34:39.372Z,8.38
2024-01-27T13:37:28.832Z,7.32
2024-01-27T13:40:16.260Z,7.43
2024-01-27T13:43:03.763Z,10.13
2024-01-27T13:45:52.546Z,8.18
2024-01-27T13:48:40.250Z,7.78
2024-01-27T13:51:27.806Z,7.32
2024-01-27T13:54:15.469Z,7.53
2024-01-27T13:57:04.122Z,9.18
2024-01-27T13:59:51.810Z,9.32
2024-01-27T14:02:39.563Z,7.03
2024-01-27T14:05:27.032Z,9.20
2024-01-27T14:08:14.739Z,8.80
2024-01-27T14:11:02.383Z,7.40
2024-01-27T14:13:49.858Z,10.98
2024-01-27T14:16:37.365Z,9.50
2024-01-27T14:19:24.974Z,7.90
2024-01-27T14:22:12.579Z,9.40
2024-01-27T14:25:00.150Z,7.00
2024-01-27T14:27:47.647Z,9.63
2024-01-27T14:30:35.475Z,5.25
2024-01-27T14:33:24.510Z,6.60
2024-01-27T14:36:12.874Z,7.43
2024-01-27T14:39:00.467Z,5.63
2024-01-27T14:41:47.959Z,6.72
2024-01-27T14:44:35.667Z,8.10
2024-01-27T14:47:23.444Z,8.10
2024-01-27T14:50:11.261Z,9.02
2024-01-27T14:52:59.988Z,8.23
2024-01-27T14:55:47.604Z,11.40
2024-01-27T14:58:35.095Z,5.63
2024-01-27T15:01:22.485Z,7.28
2024-01-27T15:04:10.058Z,6.85
2024-01-27T15:06:58.672Z,6.97
2024-01-27T15:09:46.317Z,7.30
2024-01-27T15:12:33.974Z,7.72
2024-01-27T15:15:21.592Z,7.07
2024-01-27T15:18:09.585Z,6.25
2024-01-27T15:20:57.200Z,5.15
2024-01-27T15:23:44.625Z,7.13
2024-01-27T15:26:33.009Z,8.18
2024-01-27T15:29:20.441Z,6.75
2024-01-27T15:32:08.636Z,6.10
2024-01-27T15:34:56.194Z,7.65
2024-01-27T15:37:43.664Z,7.43
2024-01-27T15:40:31.320Z,5.75
2024-01-27T15:43:18.793Z,5.75
2024-01-27T15:46:07.222Z,5.85
2024-01-27T15:48:54.763Z,4.55
2024-01-27T15:51:42.237Z,4.88
2024-01-27T15:54:29.843Z,6.15
2024-01-27T15:57:17.476Z,5.25
2024-01-27T16:00:11.544Z,5.13
2024-01-27T16:02:59.262Z,4.65
2024-01-27T16:05:46.739Z,6.78
2024-01-27T16:08:34.082Z,8.23
2024-01-27T16:11:21.588Z,6.20
2024-01-27T16:14:09.759Z,6.47
2024-01-27T16:16:57.265Z,5.63
2024-01-27T16:19:44.747Z,4.55
2024-01-27T16:22:32.218Z,5.03
2024-01-27T16:25:19.699Z,6.15
2024-01-27T16:28:07.259Z,5.30
2024-01-27T16:30:55.367Z,4.50
2024-01-27T16:33:43.018Z,5.60
2024-01-27T16:36:30.546Z,8.57
2024-01-27T16:39:18.136Z,5.80
2024-01-27T16:42:06.016Z,7.18
2024-01-27T16:44:53.598Z,5.32
2024-01-27T16:47:41.069Z,6.78
2024-01-27T16:50:28.479Z,6.07
2024-01-27T16:53:15.928Z,7.47
2024-01-27T16:56:04.088Z,7.90
2024-01-27T16:58:52.581Z,8.25
2024-01-27T17:01:40.065Z,7.28
2024-01-27T17:04:27.513Z,7.15
2024-01-27T17:07:14.898Z,9.90
2024-01-27T17:10:06.005Z,6.35
2024-01-27T17:12:53.856Z,5.70
2024-01-27T17:15:43.561Z,7.07
2024-01-27T17:18:31.164Z,7.00
2024-01-27T17:21:22.008Z,6.22
2024-01-27T17:24:09.577Z,6.25
2024-01-27T17:26:57.114Z,5.10
2024-01-27T17:29:44.508Z,6.55
2024-01-27T17:32:32.198Z,6.25
2024-01-27T17:35:19.769Z,6.25
2024-01-27T17:38:07.759Z,8.27
2024-01-27T17:40:55.678Z,6.20
2024-01-27T17:43:43.100Z,6.68
2024-01-27T17:46:31.017Z,5.60
2024-01-27T17:49:20.453Z,5.28
2024-01-27T17:52:07.981Z,7.20
2024-01-27T17:54:56.214Z,8.50
2024-01-27T17:57:43.856Z,4.57
2024-01-27T18:00:31.472Z,4.35
2024-01-27T18:03:19.161Z,6.18
2024-01-27T18:06:06.946Z,6.18
2024-01-27T18:08:54.427Z,5.50
2024-01-27T18:11:41.863Z,6.13
2024-01-27T18:14:29.282Z,5.82
2024-01-27T18:17:16.764Z,7.50
2024-01-27T18:20:04.848Z,5.18
2024-01-27T18:22:52.547Z,5.30
2024-01-27T18:25:40.002Z,4.78
2024-01-27T18:28:27.936Z,6.55
2024-01-27T18:31:16.040Z,3.97
2024-01-27T18:34:04.309Z,5.03
2024-01-27T18:36:51.862Z,6.15
2024-01-27T18:39:39.530Z,4.45
2024-01-27T18:42:30.926Z,5.70
2024-01-27T18:45:18.520Z,5.03
2024-01-27T18:48:06.711Z,5.22
2024-01-27T18:50:54.298Z,7.38
2024-01-27T18:53:43.977Z,4.85
2024-01-27T18:56:31.526Z,5.15
2024-01-27T18:59:18.951Z,5.50
2024-01-27T19:02:06.916Z,4.78
2024-01-27T19:04:54.546Z,5.43
2024-01-27T19:07:42.204Z,6.07
2024-01-27T19:10:29.752Z,5.90
2024-01-27T19:13:17.405Z,5.53
2024-01-27T19:16:08.206Z,4.25
2024-01-27T19:18:55.759Z,5.88
2024-01-27T19:21:43.401Z,6.63
2024-01-27T19:24:30.923Z,5.55
2024-01-27T19:27:18.458Z,6.32
2024-01-27T19:30:07.792Z,6.13
2024-01-27T19:32:55.323Z,6.18
2024-01-27T19:35:43.184Z,4.78
2024-01-27T19:38:30.694Z,5.95
2024-01-27T19:41:19.825Z,4.43
2024-01-27T19:44:07.544Z,5.95
2024-01-27T19:46:55.174Z,5.18
2024-01-27T19:49:43.978Z,4.25
2024-01-27T19:52:32.015Z,3.85
2024-01-27T19:55:19.567Z,5.88
2024-01-27T19:58:07.266Z,4.47
2024-01-27T20:00:55.056Z,4.30
2024-01-27T20:03:44.894Z,6.38
2024-01-27T20:06:33.769Z,4.60
2024-01-27T20:09:27.900Z,5.80
2024-01-27T20:12:15.533Z,4.10
2024-01-27T20:15:03.123Z,5.00
2024-01-27T20:17:52.647Z,4.85
2024-01-27T20:20:40.438Z,4.53
2024-01-27T20:23:27.922Z,4.75
2024-01-27T20:26:15.421Z,5.05
2024-01-27T20:29:03.491Z,5.15
2024-01-27T20:31:51.040Z,5.85
2024-01-27T20:34:38.645Z,4.88
2024-01-27T20:37:26.145Z,3.65
2024-01-27T20:40:13.748Z,3.95
2024-01-27T20:43:08.713Z,4.90
2024-01-27T20:45:56.318Z,4.45
2024-01-27T20:48:44.139Z,4.30
2024-01-27T20:51:31.704Z,5.28
2024-01-27T20:54:19.771Z,4.43
2024-01-27T20:57:07.503Z,4.88
2024-01-27T20:59:55.118Z,5.20
2024-01-27T21:02:42.757Z,4.72
2024-01-27T21:05:30.364Z,6.30
2024-01-27T21:08:17.846Z,4.65
2024-01-27T21:11:09.734Z,4.97
2024-01-27T21:13:57.233Z,4.15
2024-01-27T21:16:44.651Z,4.35
2024-01-27T21:19:32.914Z,5.65
2024-01-27T21:22:21.939Z,5.13
2024-01-27T21:25:10.291Z,5.00
2024-01-27T21:27:57.737Z,5.50
2024-01-27T21:30:45.136Z,6.20
2024-01-27T21:33:34.727Z,6.07
2024-01-27T21:36:22.369Z,4.85
2024-01-27T21:39:09.936Z,6.47
2024-01-27T21:41:57.404Z,5.05
2024-01-27T21:44:44.976Z,6.05
2024-01-27T21:47:33.067Z,6.03
2024-01-27T21:50:20.803Z,5.22
2024-01-27T21:53:08.295Z,8.15
2024-01-27T21:55:56.627Z,5.82
2024-01-27T21:58:44.162Z,5.35
2024-01-27T22:01:31.698Z,4.57
2024-01-27T22:04:19.363Z,5.35
2024-01-27T22:07:06.970Z,6.13
2024-01-27T22:09:54.412Z,8.82
2024-01-27T22:12:41.986Z,10.23
2024-01-27T22:15:29.738Z,13.32
2024-01-27T22:18:17.276Z,12.32
2024-01-27T22:21:06.624Z,8.88
2024-01-27T22:23:54.747Z,10.82
2024-01-27T22:26:42.578Z,11.73
2024-01-27T22:29:31.954Z,13.73
2024-01-27T22:32:19.642Z,11.85
2024-01-27T22:35:08.677Z,9.63
2024-01-27T22:37:56.212Z,10.13
2024-01-27T22:40:43.726Z,9.63
2024-01-27T22:43:31.062Z,11.07
2024-01-27T22:46:18.486Z,11.15
2024-01-27T22:49:07.314Z,10.63
2024-01-27T22:51:54.944Z,11.35
2024-01-27T22:54:43.108Z,9.65
2024-01-27T22:57:32.530Z,8.15
2024-01-27T23:00:34.706Z,7.38
2024-01-27T23:03:22.531Z,7.90
2024-01-27T23:06:10.414Z,10.15
2024-01-27T23:08:58.463Z,8.07
2024-01-27T23:11:46.010Z,8.55
2024-01-27T23:14:33.463Z,9.50
2024-01-27T23:17:20.913Z,8.30
2024-01-27T23:20:08.857Z,7.72
2024-01-27T23:22:56.314Z,7.50
2024-01-27T23:25:47.347Z,8.35
2024-01-27T23:28:34.854Z,7.68
2024-01-27T23:31:22.294Z,8.00
2024-01-27T23:34:11.796Z,8.60
2024-01-27T23:36:59.422Z,7.07
2024-01-27T23:39:46.955Z,7.78
2024-01-27T23:42:36.955Z,7.72
2024-01-27T23:45:24.748Z,7.53
2024-01-27T23:48:12.430Z,7.15
2024-01-27T23:51:00.354Z,7.80
2024-01-27T23:53:47.807Z,8.05
2024-01-27T23:56:35.254Z,7.18
2024-01-27T23:59:22.663Z,7.78
